sensor_id;sensor_type;location;lat;lon;timestamp;pressure;altitude;pressure_sealevel;temperature;humidity
79705;BME280;69940;53.120;8.764;2024-02-21T00:00:41;102004.00;;;10.72;81.36
79705;BME280;69940;53.120;8.764;2024-02-21T00:03:08;102000.00;;;10.72;81.34
79705;BME280;69940;53.120;8.764;2024-02-21T00:05:39;101997.00;;;10.72;81.43
79705;BME280;69940;53.120;8.764;2024-02-21T00:08:08;101996.00;;;10.72;81.48
79705;BME280;69940;53.120;8.764;2024-02-21T00:10:39;101995.00;;;10.72;81.43
79705;BME280;69940;53.120;8.764;2024-02-21T00:13:09;101995.00;;;10.72;81.49
79705;BME280;69940;53.120;8.764;2024-02-21T00:15:38;101993.00;;;10.71;81.45
79705;BME280;69940;53.120;8.764;2024-02-21T00:18:08;101990.00;;;10.72;81.50
79705;BME280;69940;53.120;8.764;2024-02-21T00:20:38;101987.00;;;10.72;81.46
79705;BME280;69940;53.120;8.764;2024-02-21T00:23:09;101985.00;;;10.72;81.51
79705;BME280;69940;53.120;8.764;2024-02-21T00:25:39;101984.00;;;10.72;81.52
79705;BME280;69940;53.120;8.764;2024-02-21T00:28:09;101979.00;;;10.72;81.50
79705;BME280;69940;53.120;8.764;2024-02-21T00:30:38;101977.00;;;10.73;81.57
79705;BME280;69940;53.120;8.764;2024-02-21T00:33:08;101974.00;;;10.73;81.52
79705;BME280;69940;53.120;8.764;2024-02-21T00:35:39;101973.00;;;10.73;81.51
79705;BME280;69940;53.120;8.764;2024-02-21T00:38:08;101970.00;;;10.73;81.48
79705;BME280;69940;53.120;8.764;2024-02-21T00:40:39;101966.00;;;10.74;81.51
79705;BME280;69940;53.120;8.764;2024-02-21T00:43:09;101963.00;;;10.75;81.51
79705;BME280;69940;53.120;8.764;2024-02-21T00:45:39;101962.00;;;10.76;81.42
79705;BME280;69940;53.120;8.764;2024-02-21T00:48:09;101961.00;;;10.77;81.38
79705;BME280;69940;53.120;8.764;2024-02-21T00:50:39;101961.00;;;10.77;81.40
79705;BME280;69940;53.120;8.764;2024-02-21T00:53:09;101957.00;;;10.78;81.41
79705;BME280;69940;53.120;8.764;2024-02-21T00:55:39;101957.00;;;10.78;81.36
79705;BME280;69940;53.120;8.764;2024-02-21T00:58:09;101957.00;;;10.78;81.41
79705;BME280;69940;53.120;8.764;2024-02-21T01:00:39;101956.00;;;10.78;81.46
79705;BME280;69940;53.120;8.764;2024-02-21T01:03:09;101954.00;;;10.77;81.59
79705;BME280;69940;53.120;8.764;2024-02-21T01:05:39;101953.00;;;10.77;81.56
79705;BME280;69940;53.120;8.764;2024-02-21T01:08:09;101952.00;;;10.78;81.46
79705;BME280;69940;53.120;8.764;2024-02-21T01:10:39;101949.00;;;10.78;81.46
79705;BME280;69940;53.120;8.764;2024-02-21T01:13:09;101946.00;;;10.78;81.39
79705;BME280;69940;53.120;8.764;2024-02-21T01:15:38;101944.00;;;10.78;81.41
79705;BME280;69940;53.120;8.764;2024-02-21T01:18:09;101942.00;;;10.78;81.35
79705;BME280;69940;53.120;8.764;2024-02-21T01:20:39;101939.00;;;10.78;81.40
79705;BME280;69940;53.120;8.764;2024-02-21T01:23:09;101938.00;;;10.79;81.38
79705;BME280;69940;53.120;8.764;2024-02-21T01:25:39;101936.00;;;10.79;81.35
79705;BME280;69940;53.120;8.764;2024-02-21T01:28:08;101931.00;;;10.79;81.40
79705;BME280;69940;53.120;8.764;2024-02-21T01:30:38;101924.00;;;10.80;81.37
79705;BME280;69940;53.120;8.764;2024-02-21T01:33:08;101916.00;;;10.80;81.27
79705;BME280;69940;53.120;8.764;2024-02-21T01:35:39;101909.00;;;10.80;81.35
79705;BME280;69940;53.120;8.764;2024-02-21T01:38:09;101901.00;;;10.80;81.39
79705;BME280;69940;53.120;8.764;2024-02-21T01:40:38;101894.00;;;10.80;81.38
79705;BME280;69940;53.120;8.764;2024-02-21T01:43:19;101889.00;;;10.79;81.41
79705;BME280;69940;53.120;8.764;2024-02-21T01:45:38;101884.00;;;10.79;81.40
79705;BME280;69940;53.120;8.764;2024-02-21T01:48:09;101878.00;;;10.79;81.37
79705;BME280;69940;53.120;8.764;2024-02-21T01:50:38;101871.00;;;10.80;81.37
79705;BME280;69940;53.120;8.764;2024-02-21T01:53:09;101865.00;;;10.80;81.46
79705;BME280;69940;53.120;8.764;2024-02-21T01:55:39;101857.00;;;10.80;81.40
79705;BME280;69940;53.120;8.764;2024-02-21T01:58:08;101849.00;;;10.80;81.32
79705;BME280;69940;53.120;8.764;2024-02-21T02:00:40;101840.00;;;10.79;81.38
79705;BME280;69940;53.120;8.764;2024-02-21T02:03:11;101831.00;;;10.78;81.42
79705;BME280;69940;53.120;8.764;2024-02-21T02:05:39;101818.00;;;10.78;81.43
79705;BME280;69940;53.120;8.764;2024-02-21T02:08:08;101810.00;;;10.77;81.42
79705;BME280;69940;53.120;8.764;2024-02-21T02:10:40;101803.00;;;10.76;81.38
79705;BME280;69940;53.120;8.764;2024-02-21T02:13:09;101801.00;;;10.75;81.41
79705;BME280;69940;53.120;8.764;2024-02-21T02:15:42;101799.00;;;10.74;81.39
79705;BME280;69940;53.120;8.764;2024-02-21T02:18:09;101796.00;;;10.74;81.32
79705;BME280;69940;53.120;8.764;2024-02-21T02:20:39;101793.00;;;10.75;81.23
79705;BME280;69940;53.120;8.764;2024-02-21T02:23:29;101792.00;;;10.75;81.27
79705;BME280;69940;53.120;8.764;2024-02-21T02:25:39;101791.00;;;10.74;81.23
79705;BME280;69940;53.120;8.764;2024-02-21T02:28:09;101791.00;;;10.74;81.23
79705;BME280;69940;53.120;8.764;2024-02-21T02:30:38;101791.00;;;10.75;81.15
79705;BME280;69940;53.120;8.764;2024-02-21T02:33:08;101792.00;;;10.75;81.13
79705;BME280;69940;53.120;8.764;2024-02-21T02:35:39;101793.00;;;10.75;81.20
79705;BME280;69940;53.120;8.764;2024-02-21T02:38:09;101795.00;;;10.75;81.22
79705;BME280;69940;53.120;8.764;2024-02-21T02:40:39;101794.00;;;10.74;81.24
79705;BME280;69940;53.120;8.764;2024-02-21T02:43:09;101793.00;;;10.74;81.25
79705;BME280;69940;53.120;8.764;2024-02-21T02:45:38;101791.00;;;10.74;81.27
79705;BME280;69940;53.120;8.764;2024-02-21T02:48:09;101788.00;;;10.73;81.25
79705;BME280;69940;53.120;8.764;2024-02-21T02:50:39;101789.00;;;10.74;81.24
79705;BME280;69940;53.120;8.764;2024-02-21T02:53:08;101789.00;;;10.74;81.15
79705;BME280;69940;53.120;8.764;2024-02-21T02:55:39;101789.00;;;10.74;81.20
79705;BME280;69940;53.120;8.764;2024-02-21T02:58:09;101789.00;;;10.75;81.13
79705;BME280;69940;53.120;8.764;2024-02-21T03:00:40;101791.00;;;10.76;81.12
79705;BME280;69940;53.120;8.764;2024-02-21T03:03:09;101790.00;;;10.76;81.08
79705;BME280;69940;53.120;8.764;2024-02-21T03:05:38;101791.00;;;10.76;81.04
79705;BME280;69940;53.120;8.764;2024-02-21T03:08:09;101791.00;;;10.75;81.20
79705;BME280;69940;53.120;8.764;2024-02-21T03:10:40;101792.00;;;10.75;81.18
79705;BME280;69940;53.120;8.764;2024-02-21T03:13:09;101790.00;;;10.75;81.19
79705;BME280;69940;53.120;8.764;2024-02-21T03:15:39;101787.00;;;10.75;81.27
79705;BME280;69940;53.120;8.764;2024-02-21T03:18:08;101786.00;;;10.75;81.34
79705;BME280;69940;53.120;8.764;2024-02-21T03:20:39;101784.00;;;10.75;81.34
79705;BME280;69940;53.120;8.764;2024-02-21T03:23:08;101783.00;;;10.75;81.39
79705;BME280;69940;53.120;8.764;2024-02-21T03:25:38;101782.00;;;10.75;81.44
79705;BME280;69940;53.120;8.764;2024-02-21T03:28:08;101781.00;;;10.75;81.44
79705;BME280;69940;53.120;8.764;2024-02-21T03:30:38;101780.00;;;10.75;81.51
79705;BME280;69940;53.120;8.764;2024-02-21T03:33:08;101779.00;;;10.75;81.68
79705;BME280;69940;53.120;8.764;2024-02-21T03:35:38;101778.00;;;10.74;81.82
79705;BME280;69940;53.120;8.764;2024-02-21T03:38:08;101776.00;;;10.75;81.85
79705;BME280;69940;53.120;8.764;2024-02-21T03:40:38;101776.00;;;10.75;82.17
79705;BME280;69940;53.120;8.764;2024-02-21T03:43:08;101774.00;;;10.74;82.38
79705;BME280;69940;53.120;8.764;2024-02-21T03:45:38;101771.00;;;10.74;82.55
79705;BME280;69940;53.120;8.764;2024-02-21T03:48:08;101770.00;;;10.73;82.93
79705;BME280;69940;53.120;8.764;2024-02-21T03:50:38;101769.00;;;10.71;83.08
79705;BME280;69940;53.120;8.764;2024-02-21T03:53:10;101769.00;;;10.70;83.34
79705;BME280;69940;53.120;8.764;2024-02-21T03:55:39;101772.00;;;10.68;83.51
79705;BME280;69940;53.120;8.764;2024-02-21T03:58:09;101773.00;;;10.66;83.74
79705;BME280;69940;53.120;8.764;2024-02-21T04:00:40;101772.00;;;10.63;83.96
79705;BME280;69940;53.120;8.764;2024-02-21T04:03:08;101774.00;;;10.61;84.15
79705;BME280;69940;53.120;8.764;2024-02-21T04:05:38;101774.00;;;10.58;84.40
79705;BME280;69940;53.120;8.764;2024-02-21T04:08:08;101774.00;;;10.56;84.49
79705;BME280;69940;53.120;8.764;2024-02-21T04:10:38;101773.00;;;10.54;84.62
79705;BME280;69940;53.120;8.764;2024-02-21T04:13:09;101773.00;;;10.52;84.80
79705;BME280;69940;53.120;8.764;2024-02-21T04:15:39;101772.00;;;10.50;85.03
79705;BME280;69940;53.120;8.764;2024-02-21T04:18:09;101771.00;;;10.48;85.15
79705;BME280;69940;53.120;8.764;2024-02-21T04:20:38;101770.00;;;10.46;85.33
79705;BME280;69940;53.120;8.764;2024-02-21T04:23:08;101769.00;;;10.44;85.26
79705;BME280;69940;53.120;8.764;2024-02-21T04:25:38;101767.00;;;10.42;85.56
79705;BME280;69940;53.120;8.764;2024-02-21T04:28:08;101767.00;;;10.40;85.78
79705;BME280;69940;53.120;8.764;2024-02-21T04:30:38;101767.00;;;10.39;85.82
79705;BME280;69940;53.120;8.764;2024-02-21T04:33:08;101765.00;;;10.37;85.80
79705;BME280;69940;53.120;8.764;2024-02-21T04:35:40;101763.00;;;10.35;86.00
79705;BME280;69940;53.120;8.764;2024-02-21T04:38:09;101761.00;;;10.34;86.10
79705;BME280;69940;53.120;8.764;2024-02-21T04:40:39;101761.00;;;10.33;86.14
79705;BME280;69940;53.120;8.764;2024-02-21T04:43:08;101760.00;;;10.32;86.29
79705;BME280;69940;53.120;8.764;2024-02-21T04:45:39;101757.00;;;10.31;86.24
79705;BME280;69940;53.120;8.764;2024-02-21T04:48:08;101754.00;;;10.30;86.25
79705;BME280;69940;53.120;8.764;2024-02-21T04:50:39;101753.00;;;10.29;86.31
79705;BME280;69940;53.120;8.764;2024-02-21T04:53:09;101752.00;;;10.28;86.42
79705;BME280;69940;53.120;8.764;2024-02-21T04:55:39;101751.00;;;10.28;86.49
79705;BME280;69940;53.120;8.764;2024-02-21T04:58:09;101751.00;;;10.28;86.45
79705;BME280;69940;53.120;8.764;2024-02-21T05:00:39;101750.00;;;10.28;86.45
79705;BME280;69940;53.120;8.764;2024-02-21T05:03:08;101751.00;;;10.28;86.47
79705;BME280;69940;53.120;8.764;2024-02-21T05:05:39;101752.00;;;10.27;86.42
79705;BME280;69940;53.120;8.764;2024-02-21T05:08:09;101752.00;;;10.27;86.51
79705;BME280;69940;53.120;8.764;2024-02-21T05:10:38;101751.00;;;10.26;86.57
79705;BME280;69940;53.120;8.764;2024-02-21T05:13:09;101748.00;;;10.27;86.61
79705;BME280;69940;53.120;8.764;2024-02-21T05:15:38;101747.00;;;10.27;86.44
79705;BME280;69940;53.120;8.764;2024-02-21T05:18:08;101745.00;;;10.27;86.41
79705;BME280;69940;53.120;8.764;2024-02-21T05:20:38;101743.00;;;10.27;86.54
79705;BME280;69940;53.120;8.764;2024-02-21T05:23:08;101740.00;;;10.26;86.55
79705;BME280;69940;53.120;8.764;2024-02-21T05:25:38;101737.00;;;10.25;86.64
79705;BME280;69940;53.120;8.764;2024-02-21T05:28:08;101734.00;;;10.24;86.69
79705;BME280;69940;53.120;8.764;2024-02-21T05:30:38;101730.00;;;10.24;86.82
79705;BME280;69940;53.120;8.764;2024-02-21T05:33:08;101728.00;;;10.24;86.76
79705;BME280;69940;53.120;8.764;2024-02-21T05:35:38;101725.00;;;10.24;86.66
79705;BME280;69940;53.120;8.764;2024-02-21T05:38:12;101722.00;;;10.24;86.71
79705;BME280;69940;53.120;8.764;2024-02-21T05:40:39;101718.00;;;10.25;86.72
79705;BME280;69940;53.120;8.764;2024-02-21T05:43:08;101714.00;;;10.25;86.74
79705;BME280;69940;53.120;8.764;2024-02-21T05:45:39;101712.00;;;10.25;86.75
79705;BME280;69940;53.120;8.764;2024-02-21T05:48:08;101709.00;;;10.24;86.77
79705;BME280;69940;53.120;8.764;2024-02-21T05:50:39;101707.00;;;10.24;86.83
79705;BME280;69940;53.120;8.764;2024-02-21T05:53:09;101704.00;;;10.24;86.84
79705;BME280;69940;53.120;8.764;2024-02-21T05:55:38;101703.00;;;10.23;86.91
79705;BME280;69940;53.120;8.764;2024-02-21T05:58:14;101701.00;;;10.23;86.78
79705;BME280;69940;53.120;8.764;2024-02-21T06:00:38;101699.00;;;10.24;86.78
79705;BME280;69940;53.120;8.764;2024-02-21T06:03:09;101700.00;;;10.24;86.82
79705;BME280;69940;53.120;8.764;2024-02-21T06:05:39;101700.00;;;10.24;86.77
79705;BME280;69940;53.120;8.764;2024-02-21T06:08:09;101699.00;;;10.25;86.70
79705;BME280;69940;53.120;8.764;2024-02-21T06:10:38;101699.00;;;10.26;86.71
79705;BME280;69940;53.120;8.764;2024-02-21T06:13:10;101699.00;;;10.27;86.66
79705;BME280;69940;53.120;8.764;2024-02-21T06:15:38;101699.00;;;10.27;86.63
79705;BME280;69940;53.120;8.764;2024-02-21T06:18:08;101698.00;;;10.28;86.62
79705;BME280;69940;53.120;8.764;2024-02-21T06:20:41;101697.00;;;10.29;86.55
79705;BME280;69940;53.120;8.764;2024-02-21T06:23:09;101697.00;;;10.30;86.49
79705;BME280;69940;53.120;8.764;2024-02-21T06:25:39;101697.00;;;10.30;86.54
79705;BME280;69940;53.120;8.764;2024-02-21T06:28:08;101696.00;;;10.30;86.64
79705;BME280;69940;53.120;8.764;2024-02-21T06:30:40;101694.00;;;10.30;86.67
79705;BME280;69940;53.120;8.764;2024-02-21T06:33:08;101693.00;;;10.29;86.74
79705;BME280;69940;53.120;8.764;2024-02-21T06:35:43;101694.00;;;10.27;86.87
79705;BME280;69940;53.120;8.764;2024-02-21T06:38:08;101694.00;;;10.27;86.80
79705;BME280;69940;53.120;8.764;2024-02-21T06:40:41;101696.00;;;10.27;86.75
79705;BME280;69940;53.120;8.764;2024-02-21T06:43:08;101698.00;;;10.27;86.76
79705;BME280;69940;53.120;8.764;2024-02-21T06:45:39;101700.00;;;10.27;86.78
79705;BME280;69940;53.120;8.764;2024-02-21T06:48:09;101701.00;;;10.29;86.74
79705;BME280;69940;53.120;8.764;2024-02-21T06:50:38;101701.00;;;10.29;86.61
79705;BME280;69940;53.120;8.764;2024-02-21T06:53:09;101703.00;;;10.30;86.66
79705;BME280;69940;53.120;8.764;2024-02-21T06:55:38;101704.00;;;10.31;86.69
79705;BME280;69940;53.120;8.764;2024-02-21T06:58:12;101705.00;;;10.32;86.72
79705;BME280;69940;53.120;8.764;2024-02-21T07:00:39;101707.00;;;10.33;86.69
79705;BME280;69940;53.120;8.764;2024-02-21T07:03:08;101706.00;;;10.33;86.83
79705;BME280;69940;53.120;8.764;2024-02-21T07:05:38;101706.00;;;10.34;86.81
79705;BME280;69940;53.120;8.764;2024-02-21T07:08:08;101707.00;;;10.34;86.82
79705;BME280;69940;53.120;8.764;2024-02-21T07:10:38;101706.00;;;10.35;86.79
79705;BME280;69940;53.120;8.764;2024-02-21T07:13:08;101706.00;;;10.35;86.75
79705;BME280;69940;53.120;8.764;2024-02-21T07:15:38;101707.00;;;10.36;86.76
79705;BME280;69940;53.120;8.764;2024-02-21T07:18:08;101708.00;;;10.36;86.77
79705;BME280;69940;53.120;8.764;2024-02-21T07:20:39;101712.00;;;10.36;86.77
79705;BME280;69940;53.120;8.764;2024-02-21T07:23:08;101715.00;;;10.36;86.81
79705;BME280;69940;53.120;8.764;2024-02-21T07:25:38;101715.00;;;10.37;86.86
79705;BME280;69940;53.120;8.764;2024-02-21T07:28:09;101717.00;;;10.37;86.81
79705;BME280;69940;53.120;8.764;2024-02-21T07:30:38;101716.00;;;10.37;86.73
79705;BME280;69940;53.120;8.764;2024-02-21T07:33:08;101716.00;;;10.37;86.63
79705;BME280;69940;53.120;8.764;2024-02-21T07:35:39;101713.00;;;10.37;86.49
79705;BME280;69940;53.120;8.764;2024-02-21T07:38:13;101714.00;;;10.37;86.44
79705;BME280;69940;53.120;8.764;2024-02-21T07:40:39;101713.00;;;10.39;86.30
79705;BME280;69940;53.120;8.764;2024-02-21T07:43:08;101714.00;;;10.41;86.21
79705;BME280;69940;53.120;8.764;2024-02-21T07:45:41;101716.00;;;10.43;86.05
79705;BME280;69940;53.120;8.764;2024-02-21T07:48:09;101717.00;;;10.46;86.00
79705;BME280;69940;53.120;8.764;2024-02-21T07:50:38;101718.00;;;10.47;86.03
79705;BME280;69940;53.120;8.764;2024-02-21T07:53:08;101718.00;;;10.48;86.05
79705;BME280;69940;53.120;8.764;2024-02-21T07:55:38;101717.00;;;10.49;86.05
79705;BME280;69940;53.120;8.764;2024-02-21T07:58:08;101716.00;;;10.50;86.01
79705;BME280;69940;53.120;8.764;2024-02-21T08:00:38;101714.00;;;10.51;86.01
79705;BME280;69940;53.120;8.764;2024-02-21T08:03:08;101712.00;;;10.52;85.97
79705;BME280;69940;53.120;8.764;2024-02-21T08:05:38;101710.00;;;10.54;85.90
79705;BME280;69940;53.120;8.764;2024-02-21T08:08:09;101707.00;;;10.56;85.88
79705;BME280;69940;53.120;8.764;2024-02-21T08:10:39;101704.00;;;10.58;85.90
79705;BME280;69940;53.120;8.764;2024-02-21T08:13:08;101701.00;;;10.60;85.70
79705;BME280;69940;53.120;8.764;2024-02-21T08:15:42;101701.00;;;10.63;85.64
79705;BME280;69940;53.120;8.764;2024-02-21T08:18:09;101698.00;;;10.65;85.63
79705;BME280;69940;53.120;8.764;2024-02-21T08:20:38;101695.00;;;10.68;85.47
79705;BME280;69940;53.120;8.764;2024-02-21T08:23:08;101692.00;;;10.71;85.26
79705;BME280;69940;53.120;8.764;2024-02-21T08:25:38;101689.00;;;10.73;85.08
79705;BME280;69940;53.120;8.764;2024-02-21T08:28:09;101688.00;;;10.75;85.17
79705;BME280;69940;53.120;8.764;2024-02-21T08:30:38;101685.00;;;10.76;85.06
79705;BME280;69940;53.120;8.764;2024-02-21T08:33:08;101684.00;;;10.77;85.11
79705;BME280;69940;53.120;8.764;2024-02-21T08:35:38;101682.00;;;10.79;84.94
79705;BME280;69940;53.120;8.764;2024-02-21T08:38:08;101680.00;;;10.82;84.86
79705;BME280;69940;53.120;8.764;2024-02-21T08:40:39;101680.00;;;10.84;84.75
79705;BME280;69940;53.120;8.764;2024-02-21T08:43:08;101678.00;;;10.86;84.67
79705;BME280;69940;53.120;8.764;2024-02-21T08:45:38;101676.00;;;10.88;84.72
79705;BME280;69940;53.120;8.764;2024-02-21T08:48:09;101673.00;;;10.91;84.71
79705;BME280;69940;53.120;8.764;2024-02-21T08:50:39;101670.00;;;10.94;84.53
79705;BME280;69940;53.120;8.764;2024-02-21T08:53:09;101668.00;;;10.97;84.62
79705;BME280;69940;53.120;8.764;2024-02-21T08:55:38;101666.00;;;11.00;84.43
79705;BME280;69940;53.120;8.764;2024-02-21T08:58:08;101663.00;;;11.01;84.32
79705;BME280;69940;53.120;8.764;2024-02-21T09:00:38;101660.00;;;11.03;84.35
79705;BME280;69940;53.120;8.764;2024-02-21T09:03:09;101658.00;;;11.04;84.20
79705;BME280;69940;53.120;8.764;2024-02-21T09:05:38;101654.00;;;11.04;84.10
79705;BME280;69940;53.120;8.764;2024-02-21T09:08:08;101651.00;;;11.03;84.10
79705;BME280;69940;53.120;8.764;2024-02-21T09:10:39;101649.00;;;11.03;84.28
79705;BME280;69940;53.120;8.764;2024-02-21T09:13:09;101648.00;;;11.02;84.12
79705;BME280;69940;53.120;8.764;2024-02-21T09:15:38;101647.00;;;11.02;83.96
79705;BME280;69940;53.120;8.764;2024-02-21T09:18:09;101648.00;;;11.02;84.12
79705;BME280;69940;53.120;8.764;2024-02-21T09:20:38;101648.00;;;11.00;84.00
79705;BME280;69940;53.120;8.764;2024-02-21T09:23:09;101648.00;;;10.98;83.98
79705;BME280;69940;53.120;8.764;2024-02-21T09:25:38;101648.00;;;10.96;84.05
79705;BME280;69940;53.120;8.764;2024-02-21T09:28:08;101647.00;;;10.95;84.07
79705;BME280;69940;53.120;8.764;2024-02-21T09:30:39;101646.00;;;10.93;84.10
79705;BME280;69940;53.120;8.764;2024-02-21T09:33:08;101643.00;;;10.92;84.09
79705;BME280;69940;53.120;8.764;2024-02-21T09:35:39;101640.00;;;10.90;84.02
79705;BME280;69940;53.120;8.764;2024-02-21T09:38:08;101639.00;;;10.90;84.04
79705;BME280;69940;53.120;8.764;2024-02-21T09:40:41;101638.00;;;10.89;83.92
79705;BME280;69940;53.120;8.764;2024-02-21T09:43:08;101635.00;;;10.89;83.96
79705;BME280;69940;53.120;8.764;2024-02-21T09:45:38;101634.00;;;10.89;83.84
79705;BME280;69940;53.120;8.764;2024-02-21T09:50:40;101631.00;;;10.89;83.69
79705;BME280;69940;53.120;8.764;2024-02-21T09:53:10;101628.00;;;10.90;83.62
79705;BME280;69940;53.120;8.764;2024-02-21T09:55:43;101627.00;;;10.90;83.48
79705;BME280;69940;53.120;8.764;2024-02-21T09:58:09;101624.00;;;10.91;83.29
79705;BME280;69940;53.120;8.764;2024-02-21T10:00:38;101622.00;;;10.91;83.20
79705;BME280;69940;53.120;8.764;2024-02-21T10:03:10;101618.00;;;10.91;83.10
79705;BME280;69940;53.120;8.764;2024-02-21T10:05:48;101613.00;;;10.92;83.04
79705;BME280;69940;53.120;8.764;2024-02-21T10:08:13;101610.00;;;10.92;82.86
79705;BME280;69940;53.120;8.764;2024-02-21T10:10:45;101606.00;;;10.93;82.77
79705;BME280;69940;53.120;8.764;2024-02-21T10:13:09;101602.00;;;10.94;82.69
79705;BME280;69940;53.120;8.764;2024-02-21T10:15:38;101598.00;;;10.95;82.61
79705;BME280;69940;53.120;8.764;2024-02-21T10:18:09;101593.00;;;10.96;82.49
79705;BME280;69940;53.120;8.764;2024-02-21T10:20:38;101589.00;;;10.97;82.14
79705;BME280;69940;53.120;8.764;2024-02-21T10:23:09;101586.00;;;10.98;82.22
79705;BME280;69940;53.120;8.764;2024-02-21T10:25:46;101583.00;;;10.99;82.17
79705;BME280;69940;53.120;8.764;2024-02-21T10:28:08;101582.00;;;11.01;82.08
79705;BME280;69940;53.120;8.764;2024-02-21T10:30:52;101579.00;;;11.02;81.71
79705;BME280;69940;53.120;8.764;2024-02-21T10:33:08;101575.00;;;11.03;81.62
79705;BME280;69940;53.120;8.764;2024-02-21T10:35:39;101571.00;;;11.03;81.67
79705;BME280;69940;53.120;8.764;2024-02-21T10:38:09;101568.00;;;11.04;81.59
79705;BME280;69940;53.120;8.764;2024-02-21T10:40:39;101567.00;;;11.05;81.41
79705;BME280;69940;53.120;8.764;2024-02-21T10:43:12;101563.00;;;11.06;81.37
79705;BME280;69940;53.120;8.764;2024-02-21T10:45:39;101560.00;;;11.08;81.35
79705;BME280;69940;53.120;8.764;2024-02-21T10:48:12;101558.00;;;11.09;81.02
79705;BME280;69940;53.120;8.764;2024-02-21T10:53:44;101553.00;;;11.14;80.82
79705;BME280;69940;53.120;8.764;2024-02-21T10:55:47;101550.00;;;11.15;80.70
79705;BME280;69940;53.120;8.764;2024-02-21T10:58:10;101548.00;;;11.17;80.59
79705;BME280;69940;53.120;8.764;2024-02-21T11:00:39;101545.00;;;11.18;80.28
79705;BME280;69940;53.120;8.764;2024-02-21T11:03:08;101542.00;;;11.21;80.40
79705;BME280;69940;53.120;8.764;2024-02-21T11:05:39;101538.00;;;11.24;79.86
79705;BME280;69940;53.120;8.764;2024-02-21T11:08:09;101535.00;;;11.26;79.38
79705;BME280;69940;53.120;8.764;2024-02-21T11:10:45;101534.00;;;11.28;79.46
79705;BME280;69940;53.120;8.764;2024-02-21T11:13:09;101531.00;;;11.31;79.22
79705;BME280;69940;53.120;8.764;2024-02-21T11:15:38;101527.00;;;11.35;78.74
79705;BME280;69940;53.120;8.764;2024-02-21T11:18:08;101522.00;;;11.40;78.59
79705;BME280;69940;53.120;8.764;2024-02-21T11:20:39;101518.00;;;11.45;78.20
79705;BME280;69940;53.120;8.764;2024-02-21T11:23:08;101512.00;;;11.52;78.14
79705;BME280;69940;53.120;8.764;2024-02-21T11:25:38;101506.00;;;11.59;78.04
79705;BME280;69940;53.120;8.764;2024-02-21T11:28:08;101500.00;;;11.66;77.71
79705;BME280;69940;53.120;8.764;2024-02-21T11:30:44;101494.00;;;11.74;77.34
79705;BME280;69940;53.120;8.764;2024-02-21T11:33:08;101488.00;;;11.81;77.15
79705;BME280;69940;53.120;8.764;2024-02-21T11:35:38;101482.00;;;11.86;76.28
79705;BME280;69940;53.120;8.764;2024-02-21T11:38:09;101475.00;;;11.89;76.09
79705;BME280;69940;53.120;8.764;2024-02-21T11:40:39;101469.00;;;11.91;75.82
79705;BME280;69940;53.120;8.764;2024-02-21T11:43:08;101463.00;;;11.94;75.76
79705;BME280;69940;53.120;8.764;2024-02-21T11:45:40;101457.00;;;11.96;75.61
79705;BME280;69940;53.120;8.764;2024-02-21T11:48:08;101451.00;;;11.99;75.13
79705;BME280;69940;53.120;8.764;2024-02-21T11:50:40;101446.00;;;12.02;75.28
79705;BME280;69940;53.120;8.764;2024-02-21T11:53:10;101444.00;;;12.04;74.73
79705;BME280;69940;53.120;8.764;2024-02-21T11:55:38;101440.00;;;12.04;74.63
79705;BME280;69940;53.120;8.764;2024-02-21T11:58:08;101436.00;;;12.05;74.54
79705;BME280;69940;53.120;8.764;2024-02-21T12:00:38;101433.00;;;12.07;74.60
79705;BME280;69940;53.120;8.764;2024-02-21T12:03:08;101429.00;;;12.09;74.49
79705;BME280;69940;53.120;8.764;2024-02-21T12:05:38;101426.00;;;12.12;74.21
79705;BME280;69940;53.120;8.764;2024-02-21T12:08:08;101423.00;;;12.14;74.15
79705;BME280;69940;53.120;8.764;2024-02-21T12:10:39;101418.00;;;12.14;73.85
79705;BME280;69940;53.120;8.764;2024-02-21T12:13:09;101414.00;;;12.13;73.93
79705;BME280;69940;53.120;8.764;2024-02-21T12:15:39;101411.00;;;12.11;74.23
79705;BME280;69940;53.120;8.764;2024-02-21T12:18:10;101408.00;;;12.11;74.12
79705;BME280;69940;53.120;8.764;2024-02-21T12:20:38;101404.00;;;12.12;74.04
79705;BME280;69940;53.120;8.764;2024-02-21T12:23:10;101400.00;;;12.13;73.13
79705;BME280;69940;53.120;8.764;2024-02-21T12:25:40;101396.00;;;12.15;72.88
79705;BME280;69940;53.120;8.764;2024-02-21T12:28:08;101392.00;;;12.16;72.62
79705;BME280;69940;53.120;8.764;2024-02-21T12:30:41;101389.00;;;12.16;72.61
79705;BME280;69940;53.120;8.764;2024-02-21T12:33:08;101386.00;;;12.16;72.92
79705;BME280;69940;53.120;8.764;2024-02-21T12:35:38;101383.00;;;12.18;73.10
79705;BME280;69940;53.120;8.764;2024-02-21T12:38:08;101378.00;;;12.19;72.37
79705;BME280;69940;53.120;8.764;2024-02-21T12:40:38;101375.00;;;12.18;72.28
79705;BME280;69940;53.120;8.764;2024-02-21T12:43:09;101371.00;;;12.18;71.98
79705;BME280;69940;53.120;8.764;2024-02-21T12:45:38;101366.00;;;12.17;72.17
79705;BME280;69940;53.120;8.764;2024-02-21T12:48:08;101361.00;;;12.17;72.27
79705;BME280;69940;53.120;8.764;2024-02-21T12:50:39;101356.00;;;12.18;72.14
79705;BME280;69940;53.120;8.764;2024-02-21T12:53:09;101350.00;;;12.19;72.22
79705;BME280;69940;53.120;8.764;2024-02-21T12:55:39;101344.00;;;12.20;72.23
79705;BME280;69940;53.120;8.764;2024-02-21T12:58:10;101336.00;;;12.23;72.21
79705;BME280;69940;53.120;8.764;2024-02-21T13:00:38;101329.00;;;12.26;71.79
79705;BME280;69940;53.120;8.764;2024-02-21T13:03:08;101324.00;;;12.27;71.48
79705;BME280;69940;53.120;8.764;2024-02-21T13:05:39;101317.00;;;12.28;71.19
79705;BME280;69940;53.120;8.764;2024-02-21T13:08:08;101311.00;;;12.30;71.09